Aérodrome :
LOGIN :

S'inscrire | Disclaimer

   EN    FR    IT 

 










Légende :    VFR   VFR Marginal   IFR   IFR Intensif   IFR Très Intensif
Visi : 
Plafond : 
>= 8 km
>= 3000ft
5 à 8 km
1000 à 3000 ft
1500m à 5 km
500 à 1000 ft
800 à 1500m
200 à 500 ft
< 800m
< 200 ft
Symboles :   Orages  Brouillard  Fortes neiges  Fortes précipitations  Vent > 20 kt
SIGMETs :   Divers  Orages  Givrage  Turbulence  Onde Orograph.  Cendres Volcan.







- Altitude de l'aérodrome : 584 ft
- Voir les cartes d'approche


LFPV - Villacoublay Vélizy

DERNIER METAR :
  • 161530Z AUTO 26017KT 9999 -RA FEW020/// SCT038/// BKN052/// ///CB 07/04 Q1002 TEMPO 26020G30KT 4000 SHRA

METARs EXPIRÉS :
  • 161500Z AUTO 26012KT 9999 FEW018/// BKN028/// BKN052/// ///TCU 07/05 Q1002 TEMPO 26020G30KT 4000 SHRA
  • 161430Z AUTO 27014KT 9000 RA FEW013/// SCT022/// BKN027/// ///CB 08/04 Q1002 TEMPO 26020G30KT 4000 SHRA
  • 161400Z AUTO 26017KT 9999 FEW023 BKN036 OVC086 09/04 Q1002
  • 161330Z AUTO 26014KT 9999 FEW011/// SCT026/// BKN033/// ///TCU 08/05 Q1002 TEMPO 25015G35KT 4000 +SHRA BKN005 BKN015CB
  • 161300Z AUTO 25015KT 9999 -RA BKN031 BKN039 BKN045 08/04 Q1002 TEMPO 25015G35KT 4000 +SHRA BKN005 BKN015CB

TAF TAF LFPV
Valide du 16 à 15h jusqu'au 17 à 15h UTC


161400Z 1615/1715 26015G25KT 9999 SCT025
TEMPO 1615/1715 26020G30KT 4000 SHRA SCT015 BKN020TCU
PROB30
TEMPO 1620/1706 27020G40KT 2500 -TSRA BKN006 BKN015CB
Pas de NOTAMs connus pour ce terrain.
2 SIGMETs publiés pour la FIR Paris (LFFF) :
 
Turbulence forte
LFFF SIGMET 6 VALID 161600/162000 LFPW
LFFF PARIS FIR/UIR SEV TURB FCST NW OF LINE N5045 E00245 - N4915 W00015 SFC/FL060 STNR NC=
Turbulence forte
LFFF SIGMET 5 VALID 161200/161600 LFPW
LFFF PARIS FIR/UIR SEV TURB FCST WI N4915 W00015 - N5000 W00015 - N5115 E00200 - N5045 E00245 - N4915 W00015 SFC/FL060 STNR NC=



MET'MAP, la Météo Aéronautique d'un coup d'oeil ! - Copyright ORBIFLY Décembre 2007 - Disclaimer

ORBIFLY MET'MAP TEAM :

Programmation & Développement : Alexandra Zaïnal
Conception & Développement : Baudouin d'Aumeries
Co-Programmation & Développement : Marc-Olivier Méhu
Soutien technique & logistique : Manuel Goepfert

Contact : metmap@orbifly.com




SOURCES & CREDITS :

   NOAA